Tropical Cyclones
[Index]
Main Index Home Page Stock Weather Photos Extreme Storms Discussion Storm News and Storm Chasing Reports Tropical Cyclones / Hurricanes / Typhoons Weather Data and Links Wild Fires / Bushfires Weather Observation Techniques Weather Picture Catalogue Tornado Pictures and Reports Stock Video Footage and DVDs for sale
Season 1996-1997 Tropical Cyclone PANCHO-HELINDA Track Map
Season 1996-1997 Summaries: [BoM-AU] [JTWC-AU] [JTWC-SIO] [JTWC-SPAC] [JTWC-SH]
<<- Previous TC | JTWC 1996-1997 Season | Next TC ->>

click for intensity scale information  Lat/long Grid: Show Hide

 Date Labels: Show Hide

Joint Typhoon Warning Centre Cyclone Data

Name: PANCHO-HELINDA

13 Jan 1997 06:00 UTC to 14 Feb 1997 12:00 UTC

    date/time    lat    long     hPa   cat  kts
1997-01-13 06    8.3   100.5                  15          
1997-01-13 12    8.5   100.2                  15          
1997-01-13 18    8.8    99.9                  15          
1997-01-14 00    9.1    99.7                  15          
1997-01-14 06    9.4    99.5                  15          
1997-01-14 12    9.8    99.2                  15          
1997-01-14 18   10.2    98.8                  15          
1997-01-15 00   10.5    98.2                  15          
1997-01-15 06   10.8    97.8                  15          
1997-01-15 12   11.2    97.7                  20          
1997-01-15 18   11.5    97.8                  20          
1997-01-16 00   11.7    98.1                  20          
1997-01-16 06   11.7    98.3                  25          
1997-01-16 12   11.5    98.4                  25          
1997-01-16 18   11.2    98.4                  25          
1997-01-17 00   10.9    98.2                  25          
1997-01-17 06   10.7    97.9                  25          
1997-01-17 12   10.5    97.6                  25          
1997-01-17 18   10.4    97.3                  25          
1997-01-18 00   10.3    97.1                  25          
1997-01-18 06   10.1    96.9                  25          
1997-01-18 12    9.9    96.7                  25          
1997-01-18 18    9.7    96.5                  25          
1997-01-19 00    9.5    96.4                  25          
1997-01-19 06    9.3    96.3                  25          
1997-01-19 12    9.1    96.2                  30          
1997-01-19 18    9.2    96.0                  30          
1997-01-20 00    9.4    96.0                  35          
1997-01-20 06    9.7    96.0            1     45          
1997-01-20 12   10.2    96.1            2     55          
1997-01-20 18   10.9    96.2            2     65          
1997-01-21 00   11.6    95.8            3     80          
1997-01-21 06   12.0    94.8            3     95          
1997-01-21 12   12.2    93.9            4    110          
1997-01-21 18   12.4    92.8            4    115          
1997-01-22 00   12.7    91.7            4    120          
1997-01-22 06   13.0    91.0            5    125          
1997-01-22 12   13.1    90.5            5    125          
1997-01-22 18   13.2    90.2            5    125          
1997-01-23 00   13.3    90.0            4    120          
1997-01-23 06   13.4    89.8            4    120          
1997-01-23 12   13.5    89.7            4    120          
1997-01-23 18   13.6    89.7            4    110          
1997-01-24 00   13.8    89.8            4    100          
1997-01-24 06   13.9    90.1            3     95          
1997-01-24 12   13.9    90.3            3     85          
1997-01-24 18   14.0    90.5            2     70          
1997-01-25 00   14.1    90.7            2     65          
1997-01-25 06   14.2    90.8            2     65          
1997-01-25 12   14.3    90.8            2     70          
1997-01-25 18   14.4    90.7            3     75          
1997-01-26 00   14.4    90.6            3     75          
1997-01-26 06   14.4    90.4            3     75          
1997-01-26 12   14.2    90.3            2     70          
1997-01-26 18   13.8    90.3            2     65          
1997-01-27 00   13.3    90.5            2     55          
1997-01-27 06   12.8    90.8            2     55          
1997-01-27 12   12.2    91.0            1     50          
1997-01-27 18   11.6    91.2            1     50          
1997-01-28 00   10.8    91.3            1     45          
1997-01-28 06   10.0    91.6            1     45          
1997-01-28 12    9.7    92.2            1     45          
1997-01-28 18    9.9    92.9            1     45          
1997-01-29 00   10.4    93.2            1     45          
1997-01-29 06   11.0    93.3            1     45          
1997-01-29 12   11.8    93.3            1     45          
1997-01-29 18   12.9    93.1            1     45          
1997-01-30 00   13.6    92.6            1     45          
1997-01-30 06   14.0    91.9            1     45          
1997-01-30 12   14.5    91.0            1     45          
1997-01-30 18   14.8    90.3            1     45          
1997-01-31 00   15.0    89.5            1     50          
1997-01-31 06   15.2    88.7            2     55          
1997-01-31 12   15.2    88.1            2     60          
1997-01-31 18   15.2    87.5            2     65          
1997-02-01 00   15.2    86.6            3     75          
1997-02-01 06   15.1    86.0            3     90          
1997-02-01 12   15.1    85.5            4    100          
1997-02-01 18   15.4    85.1            4    110          
1997-02-02 00   15.7    85.1            4    115          
1997-02-02 06   16.0    85.2            4    115          
1997-02-02 12   16.4    85.2            4    110          
1997-02-02 18   16.8    85.3            4    105          
1997-02-03 00   17.1    85.5            4    100          
1997-02-03 06   17.3    85.8            3     95          
1997-02-03 12   17.5    86.2            3     85          
1997-02-03 18   17.6    86.6            3     75          
1997-02-04 00   17.9    86.7            2     65          
1997-02-04 06   18.4    86.7            2     55          
1997-02-04 12   18.8    86.4            1     50          
1997-02-04 18   19.3    86.1            1     45          
1997-02-05 00   19.6    85.7            1     40          
1997-02-05 06   20.0    85.2                  35          
1997-02-05 12   20.3    84.3                  35          
1997-02-05 18   20.5    83.4                  35          
1997-02-06 00   20.6    82.2                  30          
1997-02-06 06   20.6    80.9                  30          
1997-02-06 12   20.4    79.6                  30          
1997-02-06 18   20.1    78.3                  25          
1997-02-07 00   19.8    77.2                  25          
1997-02-07 06   19.4    76.1                  25          
1997-02-07 12   19.0    75.1                  25          
1997-02-07 18   18.7    74.1                  25          
1997-02-08 00   18.3    73.1                  25          
1997-02-08 06   17.7    71.9                  25          
1997-02-08 12   16.8    70.7                  20          
1997-02-08 18   16.2    69.3                  20          
1997-02-09 00   15.6    68.0                  20          
1997-02-09 06   15.0    66.8                  20          
1997-02-09 12   14.3    65.6                  20          
1997-02-09 18   13.6    64.4                  20          
1997-02-10 00   13.0    63.3                  20          
1997-02-10 06   12.8    62.1                  20          
1997-02-10 12   12.8    61.0                  20          
1997-02-10 18   12.8    60.1                  20          
1997-02-11 00   12.8    59.4                  15          
1997-02-11 06   12.9    58.7                  15          
1997-02-11 12   13.0    58.1                  15          
1997-02-11 18   13.1    57.6                  15          
1997-02-12 00   13.2    57.1                  15          
1997-02-12 06   13.4    56.6                  15          
1997-02-12 12   13.5    56.1                  15          
1997-02-12 18   13.7    55.7                  15          
1997-02-13 00   13.8    55.3                  15          
1997-02-13 06   13.9    55.0                  15          
1997-02-13 12   13.9    54.7                  15          
1997-02-13 18   13.9    54.5                  15          
1997-02-14 00   13.9    54.3                  15          
1997-02-14 06   13.9    54.1                  15          
1997-02-14 12   13.9    53.9                  15          
Winds are 1-min average.

Tropical cyclone tracks developed by Michael Bath using data from the Joint Typhoon Warning Centre Best Tracks and Google Maps.


[Australian Severe Weather index] [Copyright Notice] [Email Contacts] [Search This Site] [Privacy Policy]
Document: tropical_cyclone_pancho-helinda.htm Updated: 18 September 2016